createdAt,value
2019-01-13T00:01:17.599Z,99936.16
2019-01-13T00:03:45.854Z,99937.28
2019-01-13T00:06:14.180Z,99933.58
2019-01-13T00:08:42.455Z,99934.66
2019-01-13T00:11:10.710Z,99939.78
2019-01-13T00:13:39.082Z,99938.34
2019-01-13T00:16:07.338Z,99935.67
2019-01-13T00:18:35.615Z,99937.88
2019-01-13T00:21:03.948Z,99939.50
2019-01-13T00:23:32.212Z,99936.13
2019-01-13T00:26:00.520Z,99940.34
2019-01-13T00:28:28.823Z,99939.87
2019-01-13T00:30:57.105Z,99938.73
2019-01-13T00:33:25.403Z,99944.16
2019-01-13T00:35:53.692Z,99945.41
2019-01-13T00:39:02.026Z,99938.19
2019-01-13T00:41:30.300Z,99937.56
2019-01-13T00:43:58.543Z,99937.63
2019-01-13T00:46:26.803Z,99927.88
2019-01-13T00:48:55.062Z,99930.55
2019-01-13T00:51:23.454Z,99934.13
2019-01-13T00:53:51.703Z,99921.08
2019-01-13T00:56:19.988Z,99925.60
2019-01-13T00:58:48.253Z,99927.56
2019-01-13T01:01:16.540Z,99923.28
2019-01-13T01:03:44.880Z,99922.45
2019-01-13T01:06:13.242Z,99923.08
2019-01-13T01:08:41.500Z,99916.20
2019-01-13T01:11:09.896Z,99922.09
2019-01-13T01:13:39.131Z,99918.66
2019-01-13T01:16:07.482Z,99920.17
2019-01-13T01:18:35.753Z,99913.92
2019-01-13T01:21:04.033Z,99913.30
2019-01-13T01:23:32.307Z,99914.52
2019-01-13T01:26:00.537Z,99915.29
2019-01-13T01:28:28.810Z,99907.43
2019-01-13T01:30:57.067Z,99904.38
2019-01-13T01:33:25.974Z,99902.77
2019-01-13T01:35:56.639Z,99903.30
2019-01-13T01:38:25.367Z,99901.55
2019-01-13T01:40:53.628Z,99896.36
2019-01-13T01:43:21.907Z,99905.97
2019-01-13T01:45:50.203Z,99908.97
2019-01-13T01:48:18.454Z,99913.00
2019-01-13T01:50:46.714Z,99908.48
2019-01-13T01:53:14.990Z,99898.95
2019-01-13T01:55:43.251Z,99891.24
2019-01-13T01:58:11.523Z,99896.68
2019-01-13T02:04:00.620Z,99890.88
2019-01-13T02:06:28.880Z,99886.59
2019-01-13T02:08:57.146Z,99881.26
2019-01-13T02:11:25.462Z,99878.59
2019-01-13T02:13:53.726Z,99877.52
2019-01-13T02:16:21.992Z,99882.25
2019-01-13T02:18:50.238Z,99880.95
2019-01-13T02:21:18.529Z,99889.64
2019-01-13T02:23:47.122Z,99899.56
2019-01-13T02:26:15.392Z,99888.66
2019-01-13T02:28:43.680Z,99886.20
2019-01-13T02:31:11.968Z,99893.70
2019-01-13T02:33:41.278Z,99893.17
2019-01-13T02:36:09.542Z,99893.45
2019-01-13T02:38:37.784Z,99885.21
2019-01-13T02:41:25.172Z,99892.54
2019-01-13T02:43:53.460Z,99889.27
2019-01-13T02:46:21.745Z,99890.33
2019-01-13T02:48:50.014Z,99878.96
2019-01-13T02:51:18.298Z,99881.25
2019-01-13T02:53:46.555Z,99873.01
2019-01-13T02:56:14.828Z,99882.10
2019-01-13T02:58:43.104Z,99875.91
2019-01-13T03:01:11.376Z,99876.44
2019-01-13T03:03:40.569Z,99872.63
2019-01-13T03:06:08.861Z,99876.30
2019-01-13T03:08:37.145Z,99871.11
2019-01-13T03:11:05.472Z,99872.41
2019-01-13T03:13:33.785Z,99871.87
2019-01-13T03:16:02.038Z,99876.00
2019-01-13T03:18:30.302Z,99874.70
2019-01-13T03:20:58.573Z,99870.88
2019-01-13T03:23:26.856Z,99870.72
2019-01-13T03:25:55.121Z,99867.22
2019-01-13T03:28:23.383Z,99867.98
2019-01-13T03:30:51.670Z,99864.85
2019-01-13T03:33:19.935Z,99850.96
2019-01-13T03:35:48.197Z,99845.24
2019-01-13T03:38:16.454Z,99844.71
2019-01-13T03:40:44.720Z,99842.80
2019-01-13T03:43:12.980Z,99845.77
2019-01-13T03:45:41.252Z,99834.94
2019-01-13T03:48:09.545Z,99833.03
2019-01-13T03:50:37.797Z,99815.59
2019-01-13T03:53:06.084Z,99821.27
2019-01-13T03:55:34.347Z,99826.36
2019-01-13T03:58:02.620Z,99824.67
2019-01-13T04:00:30.912Z,99814.53
2019-01-13T04:02:59.170Z,99815.30
2019-01-13T04:05:27.434Z,99811.02
2019-01-13T04:07:55.707Z,99811.47
2019-01-13T04:10:23.978Z,99809.34
2019-01-13T04:12:52.252Z,99804.84
2019-01-13T04:15:40.740Z,99806.05
2019-01-13T04:18:09.012Z,99810.41
2019-01-13T04:20:37.277Z,99801.02
2019-01-13T04:23:05.599Z,99785.75
2019-01-13T04:25:33.866Z,99792.88
2019-01-13T04:28:02.164Z,99792.73
2019-01-13T04:30:30.387Z,99784.18
2019-01-13T04:32:58.656Z,99789.67
2019-01-13T04:35:26.909Z,99780.90
2019-01-13T04:37:55.172Z,99778.08
2019-01-13T04:40:23.421Z,99769.53
2019-01-13T04:43:11.026Z,99748.54
2019-01-13T04:45:39.309Z,99748.54
2019-01-13T04:48:07.579Z,99759.69
2019-01-13T04:50:35.859Z,99757.77
2019-01-13T04:53:04.200Z,99749.80
2019-01-13T04:55:32.450Z,99743.04
2019-01-13T04:58:00.720Z,99736.09
2019-01-13T05:00:28.972Z,99737.93
2019-01-13T05:02:57.250Z,99730.91
2019-01-13T05:05:25.541Z,99735.33
2019-01-13T05:07:53.829Z,99733.50
2019-01-13T05:11:02.124Z,99735.80
2019-01-13T05:13:30.397Z,99732.09
2019-01-13T05:15:58.689Z,99727.85
2019-01-13T05:18:26.947Z,99724.23
2019-01-13T05:20:55.225Z,99731.55
2019-01-13T05:23:23.501Z,99728.34
2019-01-13T05:25:51.840Z,99725.59
2019-01-13T05:28:20.078Z,99718.34
2019-01-13T05:30:48.361Z,99728.80
2019-01-13T05:33:16.617Z,99723.08
2019-01-13T05:35:44.894Z,99716.51
2019-01-13T05:38:13.168Z,99704.15
2019-01-13T05:40:41.470Z,99707.58
2019-01-13T05:43:09.739Z,99698.50
2019-01-13T05:45:38.111Z,99694.45
2019-01-13T05:48:06.404Z,99692.16
2019-01-13T05:50:34.698Z,99682.01
2019-01-13T05:55:51.917Z,99680.03
2019-01-13T05:58:20.162Z,99672.24
2019-01-13T06:00:48.696Z,99664.92
2019-01-13T06:03:17.021Z,99666.14
2019-01-13T06:08:46.908Z,99654.00
2019-01-13T06:11:15.228Z,99662.33
2019-01-13T06:13:44.263Z,99650.48
2019-01-13T06:16:12.557Z,99636.21
2019-01-13T06:21:47.965Z,99616.45
2019-01-13T06:24:16.244Z,99610.02
2019-01-13T06:29:46.112Z,99593.39
2019-01-13T06:32:14.491Z,99586.14
2019-01-13T06:34:42.753Z,99579.73
2019-01-13T06:37:30.167Z,99579.58
2019-01-13T06:39:58.467Z,99573.55
2019-01-13T06:42:26.743Z,99567.44
2019-01-13T06:44:55.424Z,99565.68
2019-01-13T06:47:23.720Z,99556.76
2019-01-13T06:49:52.002Z,99564.17
2019-01-13T06:52:20.335Z,99552.87
2019-01-13T06:54:48.649Z,99550.27
2019-01-13T06:57:57.027Z,99528.30
2019-01-13T07:01:06.139Z,99528.59
2019-01-13T07:03:34.479Z,99538.97
2019-01-13T07:06:02.802Z,99537.22
2019-01-13T07:08:31.138Z,99531.94
2019-01-13T07:10:59.417Z,99526.38
2019-01-13T07:14:07.721Z,99526.00
2019-01-13T07:16:36.080Z,99520.05
2019-01-13T07:22:44.216Z,99502.09
2019-01-13T07:25:46.592Z,99491.80
2019-01-13T07:28:14.887Z,99486.06
2019-01-13T07:33:30.523Z,99462.25
2019-01-13T07:35:58.773Z,99463.38
2019-01-13T07:38:27.047Z,99455.59
2019-01-13T07:40:55.335Z,99455.59
2019-01-13T07:43:23.627Z,99457.63
2019-01-13T07:45:51.887Z,99442.98
2019-01-13T07:48:20.154Z,99452.19
2019-01-13T07:50:48.480Z,99442.34
2019-01-13T07:53:36.111Z,99428.91
2019-01-13T07:56:04.418Z,99425.02
2019-01-13T07:58:32.738Z,99419.45
2019-01-13T08:01:01.105Z,99414.80
2019-01-13T08:03:29.362Z,99409.73
2019-01-13T08:05:57.614Z,99402.29
2019-01-13T08:08:25.881Z,99399.14
2019-01-13T08:10:54.165Z,99393.86
2019-01-13T08:13:22.452Z,99387.75
2019-01-13T08:15:50.751Z,99390.34
2019-01-13T08:18:19.048Z,99376.81
2019-01-13T08:20:47.313Z,99363.66
2019-01-13T08:23:15.601Z,99360.97
2019-01-13T08:25:43.867Z,99358.84
2019-01-13T08:28:12.194Z,99353.09
2019-01-13T08:30:40.437Z,99331.95
2019-01-13T08:33:08.709Z,99323.98
2019-01-13T08:35:36.996Z,99317.69
2019-01-13T08:38:05.256Z,99304.12
2019-01-13T08:40:34.794Z,99309.77
2019-01-13T08:43:03.605Z,99302.82
2019-01-13T08:45:31.928Z,99293.27
2019-01-13T08:48:00.269Z,99287.61
2019-01-13T08:50:28.637Z,99281.77
2019-01-13T08:52:56.906Z,99277.22
2019-01-13T08:55:37.648Z,99272.31
2019-01-13T08:58:05.895Z,99260.44
2019-01-13T09:00:34.214Z,99257.29
2019-01-13T09:03:02.517Z,99247.27
2019-01-13T09:05:30.854Z,99241.16
2019-01-13T09:07:59.131Z,99234.10
2019-01-13T09:10:27.415Z,99232.98
2019-01-13T09:12:56.980Z,99236.38
2019-01-13T09:16:05.780Z,99218.66
2019-01-13T09:18:34.070Z,99219.50
2019-01-13T09:21:02.311Z,99210.78
2019-01-13T09:23:30.580Z,99202.80
2019-01-13T09:25:58.859Z,99197.88
2019-01-13T09:28:27.128Z,99196.94
2019-01-13T09:30:55.410Z,99193.09
2019-01-13T09:33:23.668Z,99186.04
2019-01-13T09:35:51.931Z,99180.55
2019-01-13T09:38:20.350Z,99178.98
2019-01-13T09:40:48.620Z,99170.63
2019-01-13T09:43:16.872Z,99172.38
2019-01-13T09:45:45.149Z,99174.50
2019-01-13T09:48:13.432Z,99167.81
2019-01-13T09:50:41.718Z,99159.78
2019-01-13T09:53:10.010Z,99151.42
2019-01-13T09:55:38.331Z,99148.90
2019-01-13T09:58:40.622Z,99143.50
2019-01-13T10:01:08.910Z,99146.27
2019-01-13T10:03:37.452Z,99134.47
2019-01-13T10:06:05.737Z,99126.44
2019-01-13T10:08:34.019Z,99126.98
2019-01-13T10:11:02.298Z,99124.64
2019-01-13T10:13:30.568Z,99121.58
2019-01-13T10:15:58.849Z,99120.44
2019-01-13T10:18:27.136Z,99108.17
2019-01-13T10:20:56.162Z,99107.59
2019-01-13T10:23:25.410Z,99100.03
2019-01-13T10:25:53.689Z,99099.56
2019-01-13T10:28:21.977Z,99093.43
2019-01-13T10:30:50.267Z,99089.22
2019-01-13T10:33:18.531Z,99089.02
2019-01-13T10:35:46.802Z,99083.50
2019-01-13T10:38:15.094Z,99075.02
2019-01-13T10:40:43.370Z,99076.44
2019-01-13T10:43:11.669Z,99066.16
2019-01-13T10:45:39.960Z,99076.34
2019-01-13T10:48:08.309Z,99062.30
2019-01-13T10:50:36.612Z,99067.40
2019-01-13T10:53:05.078Z,99063.55
2019-01-13T10:55:33.344Z,99047.84
2019-01-13T10:58:01.620Z,99045.02
2019-01-13T11:00:49.226Z,99049.61
2019-01-13T11:03:17.571Z,99037.70
2019-01-13T11:05:45.823Z,99028.38
2019-01-13T11:08:14.100Z,99014.94
2019-01-13T11:10:42.386Z,99030.30
2019-01-13T11:13:10.649Z,99021.19
2019-01-13T11:15:38.919Z,99014.94
2019-01-13T11:18:07.238Z,99013.06
2019-01-13T11:20:35.567Z,99002.75
2019-01-13T11:26:05.563Z,98989.02
2019-01-13T11:28:33.837Z,98982.63
2019-01-13T11:31:02.105Z,98974.92
2019-01-13T11:33:30.397Z,98972.47
2019-01-13T11:35:58.671Z,98969.03
2019-01-13T11:38:26.949Z,98960.03
2019-01-13T11:40:55.215Z,98964.27
2019-01-13T11:43:23.488Z,98963.21
2019-01-13T11:45:51.781Z,98964.37
2019-01-13T11:48:20.051Z,98962.38
2019-01-13T11:50:48.314Z,98968.88
2019-01-13T11:53:16.581Z,98949.63
2019-01-13T11:55:44.867Z,98950.13
2019-01-13T11:58:15.728Z,98949.77
2019-01-13T12:00:43.132Z,98942.06
2019-01-13T12:03:16.704Z,98938.49
2019-01-13T12:05:41.452Z,98935.45
2019-01-13T12:08:09.949Z,98931.63
2019-01-13T12:10:38.304Z,98925.26
2019-01-13T12:13:06.648Z,98925.38
2019-01-13T12:15:34.949Z,98910.84
2019-01-13T12:18:03.282Z,98903.61
2019-01-13T12:20:31.629Z,98894.25
2019-01-13T12:22:59.900Z,98905.16
2019-01-13T12:25:28.168Z,98897.11
2019-01-13T12:27:56.490Z,98894.25
2019-01-13T12:30:44.121Z,98886.84
2019-01-13T12:33:12.380Z,98887.53
2019-01-13T12:35:40.645Z,98878.17
2019-01-13T12:38:08.941Z,98879.69
2019-01-13T12:40:37.248Z,98870.69
2019-01-13T12:43:05.580Z,98871.64
2019-01-13T12:45:33.837Z,98869.64
2019-01-13T12:48:02.120Z,98866.10
2019-01-13T12:51:04.222Z,98855.30
2019-01-13T12:53:32.493Z,98853.31
2019-01-13T12:56:00.760Z,98840.42
2019-01-13T12:58:29.039Z,98841.61
2019-01-13T13:00:57.296Z,98842.19
2019-01-13T13:03:31.635Z,98850.71
2019-01-13T13:05:55.586Z,98823.87
2019-01-13T13:08:23.857Z,98825.28
2019-01-13T13:10:52.112Z,98823.98
2019-01-13T13:13:20.382Z,98811.55
2019-01-13T13:15:48.675Z,98812.73
2019-01-13T13:18:16.943Z,98800.92
2019-01-13T13:20:45.201Z,98803.05
2019-01-13T13:23:13.547Z,98812.48
2019-01-13T13:25:41.832Z,98796.55
2019-01-13T13:28:10.102Z,98791.92
2019-01-13T13:30:38.370Z,98784.23
2019-01-13T13:33:06.653Z,98767.09
2019-01-13T13:35:39.666Z,98761.41
2019-01-13T13:38:04.968Z,98756.45
2019-01-13T13:40:33.243Z,98739.77
2019-01-13T13:43:01.513Z,98745.69
2019-01-13T13:45:29.781Z,98731.49
2019-01-13T13:47:58.043Z,98744.62
2019-01-13T13:51:00.346Z,98733.49
2019-01-13T13:53:28.602Z,98738.84
2019-01-13T13:55:56.870Z,98717.77
2019-01-13T13:58:25.125Z,98708.42
2019-01-13T14:00:53.373Z,98696.73
2019-01-13T14:03:21.644Z,98693.41
2019-01-13T14:05:49.904Z,98681.23
2019-01-13T14:08:18.164Z,98679.22
2019-01-13T14:10:46.444Z,98666.56
2019-01-13T14:13:14.709Z,98664.44
2019-01-13T14:15:43.037Z,98675.90
2019-01-13T14:18:11.323Z,98671.88
2019-01-13T14:20:39.590Z,98662.68
2019-01-13T14:23:07.862Z,98643.86
2019-01-13T14:25:36.117Z,98630.38
2019-01-13T14:28:04.480Z,98634.16
2019-01-13T14:30:32.750Z,98618.08
2019-01-13T14:33:01.015Z,98606.61
2019-01-13T14:35:29.380Z,98587.72
2019-01-13T14:37:57.691Z,98582.05
2019-01-13T14:40:26.390Z,98582.84
2019-01-13T14:42:54.661Z,98566.29
2019-01-13T14:45:56.940Z,98569.37
2019-01-13T14:48:25.229Z,98565.14
2019-01-13T14:50:53.495Z,98558.16
2019-01-13T14:53:21.771Z,98567.03
2019-01-13T14:55:50.066Z,98577.31
2019-01-13T14:58:32.595Z,98580.14
2019-01-13T15:00:48.365Z,98577.66
2019-01-13T15:03:16.651Z,98585.91
2019-01-13T15:05:44.990Z,98578.48
2019-01-13T15:08:13.273Z,98599.16
2019-01-13T15:10:41.537Z,98587.69
2019-01-13T15:13:09.779Z,98593.12
2019-01-13T15:15:38.074Z,98592.63
2019-01-13T15:18:06.368Z,98603.00
2019-01-13T15:20:34.651Z,98604.00
2019-01-13T15:23:03.044Z,98592.68
2019-01-13T15:25:31.398Z,98589.83
2019-01-13T15:27:59.780Z,98574.60
2019-01-13T15:31:08.395Z,98580.19
2019-01-13T15:33:37.004Z,98578.66
2019-01-13T15:36:05.313Z,98569.43
2019-01-13T15:38:33.634Z,98571.92
2019-01-13T15:41:02.277Z,98569.91
2019-01-13T15:46:47.286Z,98566.23
2019-01-13T15:49:29.394Z,98566.46
2019-01-13T15:52:24.503Z,98564.91
2019-01-13T15:55:34.090Z,98551.10
2019-01-13T15:58:02.466Z,98541.77
2019-01-13T16:01:11.736Z,98543.78
2019-01-13T16:03:40.005Z,98532.09
2019-01-13T16:06:08.292Z,98541.30
2019-01-13T16:08:36.579Z,98541.18
2019-01-13T16:11:04.894Z,98546.73
2019-01-13T16:13:33.178Z,98526.89
2019-01-13T16:16:01.475Z,98527.73
2019-01-13T16:18:29.837Z,98521.83
2019-01-13T16:20:58.138Z,98520.99
2019-01-13T16:23:45.792Z,98506.83
2019-01-13T16:26:14.078Z,98513.80
2019-01-13T16:28:42.380Z,98501.28
2019-01-13T16:31:10.640Z,98518.72
2019-01-13T16:33:38.922Z,98502.07
2019-01-13T16:36:07.237Z,98487.90
2019-01-13T16:38:35.505Z,98496.97
2019-01-13T16:41:03.751Z,98505.13
2019-01-13T16:43:32.010Z,98504.16
2019-01-13T16:46:00.343Z,98504.41
2019-01-13T16:48:28.623Z,98511.61
2019-01-13T16:50:56.885Z,98502.86
2019-01-13T16:53:25.158Z,98503.80
2019-01-13T16:55:53.417Z,98483.36
2019-01-13T16:58:21.681Z,98496.59
2019-01-13T17:00:49.952Z,98501.42
2019-01-13T17:03:18.227Z,98501.32
2019-01-13T17:05:46.468Z,98486.80
2019-01-13T17:08:14.920Z,98504.48
2019-01-13T17:10:43.167Z,98516.42
2019-01-13T17:13:11.601Z,98514.27
2019-01-13T17:15:39.883Z,98510.73
2019-01-13T17:18:08.201Z,98512.94
2019-01-13T17:20:36.524Z,98518.45
2019-01-13T17:23:44.844Z,98511.28
2019-01-13T17:26:13.130Z,98533.81
2019-01-13T17:28:41.382Z,98530.75
2019-01-13T17:31:09.705Z,98533.34
2019-01-13T17:33:38.937Z,98517.91
2019-01-13T17:36:07.217Z,98507.70
2019-01-13T17:38:35.481Z,98508.38
2019-01-13T17:41:03.791Z,98513.47
2019-01-13T17:43:32.047Z,98511.34
2019-01-13T17:48:59.264Z,98517.72
2019-01-13T17:54:35.614Z,98526.91
2019-01-13T18:00:38.818Z,98519.40
2019-01-13T18:03:40.903Z,98523.02
2019-01-13T18:06:09.184Z,98507.44
2019-01-13T18:08:37.490Z,98538.23
2019-01-13T18:11:05.766Z,98508.41
2019-01-13T18:13:34.053Z,98532.71
2019-01-13T18:16:02.335Z,98521.53
2019-01-13T18:18:30.599Z,98526.47
2019-01-13T18:20:58.863Z,98527.08
2019-01-13T18:23:27.146Z,98514.56
2019-01-13T18:25:55.434Z,98520.00
2019-01-13T18:28:23.968Z,98530.05
2019-01-13T18:30:53.709Z,98513.20
2019-01-13T18:33:22.018Z,98532.29
2019-01-13T18:35:50.291Z,98525.08
2019-01-13T18:38:18.554Z,98515.78
2019-01-13T18:40:46.833Z,98534.53
2019-01-13T18:43:15.120Z,98539.13
2019-01-13T18:46:16.967Z,98537.33
2019-01-13T18:48:45.298Z,98531.19
2019-01-13T18:51:13.578Z,98526.03
2019-01-13T18:53:42.364Z,98539.45
2019-01-13T18:56:10.633Z,98528.70
2019-01-13T18:58:38.906Z,98537.22
2019-01-13T19:01:07.179Z,98522.72
2019-01-13T19:03:35.458Z,98525.06
2019-01-13T19:06:03.969Z,98526.83
2019-01-13T19:08:32.193Z,98517.03
2019-01-13T19:11:40.512Z,98527.41
2019-01-13T19:14:48.824Z,98524.23
2019-01-13T19:17:17.112Z,98536.28
2019-01-13T19:19:45.447Z,98533.93
2019-01-13T19:22:13.717Z,98526.73
2019-01-13T19:24:41.975Z,98530.75
2019-01-13T19:27:10.244Z,98539.59
2019-01-13T19:29:38.523Z,98530.26
2019-01-13T19:32:06.800Z,98530.12
2019-01-13T19:34:35.119Z,98543.92
2019-01-13T19:37:03.355Z,98527.52
2019-01-13T19:39:31.644Z,98533.07
2019-01-13T19:41:59.912Z,98534.76
2019-01-13T19:44:28.167Z,98531.83
2019-01-13T19:46:56.438Z,98537.94
2019-01-13T19:49:24.696Z,98546.08
2019-01-13T19:51:52.964Z,98544.53
2019-01-13T19:54:21.229Z,98569.09
2019-01-13T19:56:49.493Z,98556.47
2019-01-13T19:59:17.767Z,98566.02
2019-01-13T20:01:46.030Z,98568.65
2019-01-13T20:04:14.305Z,98575.83
2019-01-13T20:06:42.565Z,98577.23
2019-01-13T20:11:49.769Z,98585.64
2019-01-13T20:14:18.009Z,98588.34
2019-01-13T20:16:46.283Z,98584.92
2019-01-13T20:19:14.534Z,98563.31
2019-01-13T20:21:42.830Z,98584.09
2019-01-13T20:24:11.112Z,98581.82
2019-01-13T20:26:39.383Z,98579.55
2019-01-13T20:29:07.673Z,98588.31
2019-01-13T20:31:35.971Z,98588.53
2019-01-13T20:34:04.217Z,98590.98
2019-01-13T20:36:32.470Z,98613.98
2019-01-13T20:39:00.724Z,98614.66
2019-01-13T20:41:28.973Z,98621.44
2019-01-13T20:43:57.230Z,98617.38
2019-01-13T20:46:25.499Z,98620.08
2019-01-13T20:48:53.766Z,98641.20
2019-01-13T20:51:22.028Z,98639.13
2019-01-13T20:53:50.299Z,98647.22
2019-01-13T20:56:18.583Z,98638.86
2019-01-13T20:58:46.823Z,98649.91
2019-01-13T21:01:15.099Z,98654.59
2019-01-13T21:03:43.631Z,98660.44
2019-01-13T21:06:11.887Z,98665.45
2019-01-13T21:08:40.143Z,98681.02
2019-01-13T21:11:08.483Z,98690.77
2019-01-13T21:13:36.718Z,98691.23
2019-01-13T21:16:05.158Z,98694.89
2019-01-13T21:18:33.402Z,98703.13
2019-01-13T21:21:01.659Z,98710.91
2019-01-13T21:23:29.930Z,98719.92
2019-01-13T21:25:58.219Z,98725.67
2019-01-13T21:28:26.479Z,98723.17
2019-01-13T21:30:54.742Z,98734.48
2019-01-13T21:33:22.997Z,98729.66
2019-01-13T21:35:51.327Z,98732.05
2019-01-13T21:38:19.600Z,98747.70
2019-01-13T21:40:47.880Z,98748.93
2019-01-13T21:43:16.114Z,98760.03
2019-01-13T21:45:44.373Z,98743.14
2019-01-13T21:48:12.626Z,98775.67
2019-01-13T21:50:40.902Z,98750.52
2019-01-13T21:53:09.167Z,98763.20
2019-01-13T21:55:37.422Z,98769.11
2019-01-13T21:58:05.692Z,98779.99
2019-01-13T22:00:33.937Z,98793.33
2019-01-13T22:03:02.172Z,98780.28
2019-01-13T22:05:30.439Z,98799.17
2019-01-13T22:07:58.689Z,98809.26
2019-01-13T22:10:28.025Z,98802.41
2019-01-13T22:12:56.928Z,98801.53
2019-01-13T22:15:25.182Z,98829.56
2019-01-13T22:17:53.438Z,98806.91
2019-01-13T22:20:23.052Z,98832.90
2019-01-13T22:23:24.988Z,98829.38
2019-01-13T22:25:53.280Z,98846.03
2019-01-13T22:28:21.540Z,98860.86
2019-01-13T22:30:49.800Z,98855.41
2019-01-13T22:33:18.061Z,98862.44
2019-01-13T22:35:48.306Z,98870.66
2019-01-13T22:38:16.311Z,98872.70
2019-01-13T22:40:44.562Z,98868.16
2019-01-13T22:43:12.817Z,98866.59
2019-01-13T22:45:41.076Z,98883.23
2019-01-13T22:48:09.345Z,98877.31
2019-01-13T22:50:37.591Z,98894.14
2019-01-13T22:53:05.864Z,98904.80
2019-01-13T22:55:34.119Z,98908.95
2019-01-13T22:58:02.391Z,98901.65
2019-01-13T23:01:11.009Z,98920.69
2019-01-13T23:03:39.259Z,98918.92
2019-01-13T23:06:07.663Z,98914.12
2019-01-13T23:08:35.930Z,98943.88
2019-01-13T23:11:04.327Z,98941.01
2019-01-13T23:13:32.601Z,98948.69
2019-01-13T23:16:00.858Z,98958.59
2019-01-13T23:18:29.140Z,98967.08
2019-01-13T23:20:57.404Z,98955.23
2019-01-13T23:23:25.642Z,98980.53
2019-01-13T23:25:53.921Z,98966.59
2019-01-13T23:28:22.164Z,98976.56
2019-01-13T23:30:50.423Z,98985.88
2019-01-13T23:33:18.664Z,98990.88
2019-01-13T23:35:46.912Z,99006.45
2019-01-13T23:38:15.235Z,99017.09
2019-01-13T23:40:43.487Z,99017.84
2019-01-13T23:43:11.816Z,99027.60
2019-01-13T23:45:40.062Z,99017.80
2019-01-13T23:48:08.333Z,99020.09
2019-01-13T23:50:36.578Z,99018.71
2019-01-13T23:53:04.836Z,98993.30
2019-01-13T23:55:33.079Z,99022.62
2019-01-13T23:58:01.343Z,99029.26
